sensor_id;sensor_type;location;lat;lon;timestamp;pressure;altitude;pressure_sealevel;temperature;humidity
80678;BME280;70042;52.494;5.502;2024-03-22T00:00:34;102163.09;;;17.06;66.88
80678;BME280;70042;52.494;5.502;2024-03-22T00:02:59;102155.19;;;17.06;67.16
80678;BME280;70042;52.494;5.502;2024-03-22T00:05:25;102157.81;;;17.06;66.98
80678;BME280;70042;52.494;5.502;2024-03-22T00:07:50;102144.63;;;17.06;66.96
80678;BME280;70042;52.494;5.502;2024-03-22T00:10:16;102135.81;;;17.07;67.06
80678;BME280;70042;52.494;5.502;2024-03-22T00:12:41;102144.63;;;17.06;66.79
80678;BME280;70042;52.494;5.502;2024-03-22T00:15:07;102134.94;;;17.06;67.23
80678;BME280;70042;52.494;5.502;2024-03-22T00:17:32;102141.09;;;17.07;66.84
80678;BME280;70042;52.494;5.502;2024-03-22T00:19:59;102143.75;;;17.05;66.96
80678;BME280;70042;52.494;5.502;2024-03-22T00:22:25;102130.53;;;17.07;66.83
80678;BME280;70042;52.494;5.502;2024-03-22T00:24:50;102126.16;;;17.08;66.76
80678;BME280;70042;52.494;5.502;2024-03-22T00:27:15;102123.50;;;17.08;66.97
80678;BME280;70042;52.494;5.502;2024-03-22T00:29:41;102119.97;;;17.07;67.31
80678;BME280;70042;52.494;5.502;2024-03-22T00:32:06;102117.34;;;17.07;67.00
80678;BME280;70042;52.494;5.502;2024-03-22T00:34:34;102107.66;;;17.06;66.96
80678;BME280;70042;52.494;5.502;2024-03-22T00:36:59;102104.13;;;17.07;66.96
80678;BME280;70042;52.494;5.502;2024-03-22T00:39:25;102102.38;;;17.06;66.83
80678;BME280;70042;52.494;5.502;2024-03-22T00:41:50;102098.84;;;17.05;66.83
80678;BME280;70042;52.494;5.502;2024-03-22T00:44:16;102086.53;;;17.06;66.56
80678;BME280;70042;52.494;5.502;2024-03-22T00:46:41;102087.41;;;17.06;66.69
80678;BME280;70042;52.494;5.502;2024-03-22T00:49:06;102086.53;;;17.06;66.71
80678;BME280;70042;52.494;5.502;2024-03-22T00:51:32;102088.28;;;17.07;66.63
80678;BME280;70042;52.494;5.502;2024-03-22T00:53:57;102090.94;;;17.05;66.77
80678;BME280;70042;52.494;5.502;2024-03-22T00:56:22;102092.69;;;17.06;66.70
80678;BME280;70042;52.494;5.502;2024-03-22T00:58:48;102078.59;;;17.06;66.64
80678;BME280;70042;52.494;5.502;2024-03-22T01:01:13;102097.09;;;17.06;66.69
80678;BME280;70042;52.494;5.502;2024-03-22T01:03:39;102096.22;;;17.07;66.74
80678;BME280;70042;52.494;5.502;2024-03-22T01:06:04;102100.63;;;17.06;66.80
80678;BME280;70042;52.494;5.502;2024-03-22T01:08:30;102093.56;;;17.07;66.72
80678;BME280;70042;52.494;5.502;2024-03-22T01:10:55;102090.94;;;17.07;66.63
80678;BME280;70042;52.494;5.502;2024-03-22T01:13:21;102086.53;;;17.06;66.79
80678;BME280;70042;52.494;5.502;2024-03-22T01:15:46;102076.84;;;17.05;66.67
80678;BME280;70042;52.494;5.502;2024-03-22T01:18:12;102087.41;;;17.06;66.89
80678;BME280;70042;52.494;5.502;2024-03-22T01:20:41;102084.75;;;17.05;66.73
80678;BME280;70042;52.494;5.502;2024-03-22T01:23:07;102072.47;;;17.04;66.94
80678;BME280;70042;52.494;5.502;2024-03-22T01:25:33;102071.56;;;17.05;66.78
80678;BME280;70042;52.494;5.502;2024-03-22T01:27:58;102068.94;;;17.03;66.72
80678;BME280;70042;52.494;5.502;2024-03-22T01:30:24;102068.06;;;17.04;66.85
80678;BME280;70042;52.494;5.502;2024-03-22T01:32:53;102067.19;;;17.04;66.98
80678;BME280;70042;52.494;5.502;2024-03-22T01:35:19;102061.91;;;17.04;66.56
80678;BME280;70042;52.494;5.502;2024-03-22T01:37:44;102057.50;;;17.04;66.88
80678;BME280;70042;52.494;5.502;2024-03-22T01:40:10;102053.06;;;17.05;66.81
80678;BME280;70042;52.494;5.502;2024-03-22T01:42:36;102053.06;;;17.05;66.88
80678;BME280;70042;52.494;5.502;2024-03-22T01:45:01;102053.97;;;17.04;66.64
80678;BME280;70042;52.494;5.502;2024-03-22T01:47:27;102051.34;;;17.04;66.65
80678;BME280;70042;52.494;5.502;2024-03-22T01:49:54;102058.34;;;17.05;66.67
80678;BME280;70042;52.494;5.502;2024-03-22T01:52:20;102044.28;;;17.03;66.55
80678;BME280;70042;52.494;5.502;2024-03-22T01:54:46;102049.56;;;17.03;66.80
80678;BME280;70042;52.494;5.502;2024-03-22T01:57:11;102053.09;;;17.03;66.80
80678;BME280;70042;52.494;5.502;2024-03-22T01:59:37;102052.22;;;17.04;66.65
80678;BME280;70042;52.494;5.502;2024-03-22T02:02:04;102053.09;;;17.03;66.57
80678;BME280;70042;52.494;5.502;2024-03-22T02:04:29;102046.06;;;17.02;66.58
80678;BME280;70042;52.494;5.502;2024-03-22T02:06:54;102049.56;;;17.03;66.70
80678;BME280;70042;52.494;5.502;2024-03-22T02:09:20;102038.13;;;17.02;66.53
80678;BME280;70042;52.494;5.502;2024-03-22T02:11:46;102037.25;;;17.02;66.82
80678;BME280;70042;52.494;5.502;2024-03-22T02:14:12;102034.59;;;17.02;66.69
80678;BME280;70042;52.494;5.502;2024-03-22T02:16:40;102031.97;;;17.02;66.51
80678;BME280;70042;52.494;5.502;2024-03-22T02:19:06;102026.69;;;17.02;66.61
80678;BME280;70042;52.494;5.502;2024-03-22T02:21:31;102027.56;;;17.02;66.66
80678;BME280;70042;52.494;5.502;2024-03-22T02:23:57;102016.13;;;17.02;66.37
80678;BME280;70042;52.494;5.502;2024-03-22T02:26:22;102015.25;;;17.03;66.49
80678;BME280;70042;52.494;5.502;2024-03-22T02:28:47;101996.78;;;17.03;66.53
80678;BME280;70042;52.494;5.502;2024-03-22T02:31:13;101998.53;;;17.02;66.98
80678;BME280;70042;52.494;5.502;2024-03-22T02:33:38;101995.88;;;17.02;66.48
80678;BME280;70042;52.494;5.502;2024-03-22T02:36:05;101990.59;;;17.02;66.37
80678;BME280;70042;52.494;5.502;2024-03-22T02:38:30;101987.06;;;17.02;66.38
80678;BME280;70042;52.494;5.502;2024-03-22T02:40:58;101980.94;;;17.01;66.56
80678;BME280;70042;52.494;5.502;2024-03-22T02:43:23;101976.53;;;17.02;66.66
80678;BME280;70042;52.494;5.502;2024-03-22T02:45:49;101973.91;;;17.00;66.43
80678;BME280;70042;52.494;5.502;2024-03-22T02:48:15;101968.63;;;17.00;66.58
80678;BME280;70042;52.494;5.502;2024-03-22T02:50:40;101959.81;;;17.00;66.57
80678;BME280;70042;52.494;5.502;2024-03-22T02:53:06;101943.97;;;17.00;66.42
80678;BME280;70042;52.494;5.502;2024-03-22T02:55:41;101943.09;;;17.01;66.26
80678;BME280;70042;52.494;5.502;2024-03-22T02:58:07;101933.41;;;17.00;66.46
80678;BME280;70042;52.494;5.502;2024-03-22T03:00:39;101925.50;;;17.00;66.07
80678;BME280;70042;52.494;5.502;2024-03-22T03:03:07;101925.50;;;17.00;66.44
80678;BME280;70042;52.494;5.502;2024-03-22T03:05:33;101934.31;;;17.00;66.51
80678;BME280;70042;52.494;5.502;2024-03-22T03:08:00;101921.97;;;16.99;66.44
80678;BME280;70042;52.494;5.502;2024-03-22T03:10:26;101925.50;;;17.00;66.38
80678;BME280;70042;52.494;5.502;2024-03-22T03:12:53;101928.16;;;17.01;66.58
80678;BME280;70042;52.494;5.502;2024-03-22T03:15:19;101928.13;;;17.00;66.47
80678;BME280;70042;52.494;5.502;2024-03-22T03:17:44;101917.56;;;17.00;66.73
80678;BME280;70042;52.494;5.502;2024-03-22T03:20:10;101908.78;;;17.01;66.72
80678;BME280;70042;52.494;5.502;2024-03-22T03:22:41;101913.19;;;17.00;66.32
80678;BME280;70042;52.494;5.502;2024-03-22T03:25:07;101908.78;;;16.99;66.53
80678;BME280;70042;52.494;5.502;2024-03-22T03:27:33;101916.69;;;16.99;66.51
80678;BME280;70042;52.494;5.502;2024-03-22T03:29:59;101911.41;;;16.99;66.39
80678;BME280;70042;52.494;5.502;2024-03-22T03:32:24;101899.13;;;16.98;66.51
80678;BME280;70042;52.494;5.502;2024-03-22T03:34:50;101901.75;;;17.00;66.37
80678;BME280;70042;52.494;5.502;2024-03-22T03:37:16;101890.28;;;16.99;66.27
80678;BME280;70042;52.494;5.502;2024-03-22T03:39:41;101878.00;;;16.98;66.26
80678;BME280;70042;52.494;5.502;2024-03-22T03:42:07;101880.66;;;16.98;66.55
80678;BME280;70042;52.494;5.502;2024-03-22T03:44:32;101878.84;;;16.99;66.33
80678;BME280;70042;52.494;5.502;2024-03-22T03:46:59;101875.38;;;16.98;66.35
80678;BME280;70042;52.494;5.502;2024-03-22T03:49:25;101878.00;;;16.98;66.23
80678;BME280;70042;52.494;5.502;2024-03-22T03:51:50;101887.69;;;16.98;66.40
80678;BME280;70042;52.494;5.502;2024-03-22T03:54:16;101893.84;;;16.98;66.29
80678;BME280;70042;52.494;5.502;2024-03-22T03:56:41;101903.53;;;16.98;66.19
80678;BME280;70042;52.494;5.502;2024-03-22T03:59:07;101895.59;;;16.98;66.26
80678;BME280;70042;52.494;5.502;2024-03-22T04:01:32;101875.34;;;16.97;66.17
80678;BME280;70042;52.494;5.502;2024-03-22T04:03:57;101866.56;;;16.98;66.36
80678;BME280;70042;52.494;5.502;2024-03-22T04:06:23;101871.84;;;16.98;66.24
80678;BME280;70042;52.494;5.502;2024-03-22T04:08:48;101864.78;;;16.97;66.17
80678;BME280;70042;52.494;5.502;2024-03-22T04:11:13;101870.06;;;16.97;66.34
80678;BME280;70042;52.494;5.502;2024-03-22T04:13:39;101875.34;;;16.97;66.20
80678;BME280;70042;52.494;5.502;2024-03-22T04:16:04;101879.75;;;16.96;66.22
80678;BME280;70042;52.494;5.502;2024-03-22T04:18:30;101872.75;;;16.95;66.16
80678;BME280;70042;52.494;5.502;2024-03-22T04:20:57;101879.78;;;16.95;66.22
80678;BME280;70042;52.494;5.502;2024-03-22T04:23:24;101874.50;;;16.95;66.31
80678;BME280;70042;52.494;5.502;2024-03-22T04:25:55;101871.84;;;16.95;66.41
80678;BME280;70042;52.494;5.502;2024-03-22T04:28:21;101870.94;;;16.96;66.12
80678;BME280;70042;52.494;5.502;2024-03-22T04:31:04;101877.13;;;16.95;66.35
80678;BME280;70042;52.494;5.502;2024-03-22T04:33:31;101869.22;;;16.95;66.23
80678;BME280;70042;52.494;5.502;2024-03-22T04:35:57;101867.47;;;16.95;66.09
80678;BME280;70042;52.494;5.502;2024-03-22T04:38:24;101870.97;;;16.94;66.14
80678;BME280;70042;52.494;5.502;2024-03-22T04:40:49;101859.53;;;16.94;66.22
80678;BME280;70042;52.494;5.502;2024-03-22T04:43:15;101869.22;;;16.93;66.27
80678;BME280;70042;52.494;5.502;2024-03-22T04:45:47;101862.16;;;16.92;66.42
80678;BME280;70042;52.494;5.502;2024-03-22T04:48:14;101870.09;;;16.94;66.29
80678;BME280;70042;52.494;5.502;2024-03-22T04:50:40;101861.28;;;16.93;66.13
80678;BME280;70042;52.494;5.502;2024-03-22T04:53:05;101858.66;;;16.93;66.21
80678;BME280;70042;52.494;5.502;2024-03-22T04:55:31;101859.53;;;16.94;66.15
80678;BME280;70042;52.494;5.502;2024-03-22T04:57:58;101853.38;;;16.93;66.03
80678;BME280;70042;52.494;5.502;2024-03-22T05:00:23;101855.13;;;16.93;66.14
80678;BME280;70042;52.494;5.502;2024-03-22T05:02:50;101852.50;;;16.93;66.09
80678;BME280;70042;52.494;5.502;2024-03-22T05:05:16;101856.03;;;16.92;65.73
80678;BME280;70042;52.494;5.502;2024-03-22T05:07:41;101853.38;;;16.93;66.32
80678;BME280;70042;52.494;5.502;2024-03-22T05:10:07;101856.03;;;16.92;66.32
80678;BME280;70042;52.494;5.502;2024-03-22T05:12:34;101848.97;;;16.92;66.07
80678;BME280;70042;52.494;5.502;2024-03-22T05:14:59;101844.56;;;16.93;65.99
80678;BME280;70042;52.494;5.502;2024-03-22T05:17:24;101847.22;;;16.93;66.07
80678;BME280;70042;52.494;5.502;2024-03-22T05:19:50;101843.69;;;16.92;66.19
80678;BME280;70042;52.494;5.502;2024-03-22T05:22:15;101844.59;;;16.91;66.11
80678;BME280;70042;52.494;5.502;2024-03-22T05:24:41;101841.03;;;16.92;66.06
80678;BME280;70042;52.494;5.502;2024-03-22T05:27:07;101840.19;;;16.92;66.27
80678;BME280;70042;52.494;5.502;2024-03-22T05:29:32;101834.91;;;16.90;65.91
80678;BME280;70042;52.494;5.502;2024-03-22T05:31:58;101845.47;;;16.92;66.30
80678;BME280;70042;52.494;5.502;2024-03-22T05:34:23;101843.72;;;16.91;66.20
80678;BME280;70042;52.494;5.502;2024-03-22T05:36:49;101833.16;;;16.91;65.96
80678;BME280;70042;52.494;5.502;2024-03-22T05:39:14;101834.91;;;16.90;66.05
80678;BME280;70042;52.494;5.502;2024-03-22T05:41:40;101830.50;;;16.91;66.25
80678;BME280;70042;52.494;5.502;2024-03-22T05:44:05;101827.88;;;16.91;66.19
80678;BME280;70042;52.494;5.502;2024-03-22T05:46:31;101827.88;;;16.91;66.04
80678;BME280;70042;52.494;5.502;2024-03-22T05:48:57;101820.84;;;16.90;65.95
80678;BME280;70042;52.494;5.502;2024-03-22T05:51:24;101818.19;;;16.90;66.10
80678;BME280;70042;52.494;5.502;2024-03-22T05:53:49;101826.13;;;16.90;66.07
80678;BME280;70042;52.494;5.502;2024-03-22T05:56:15;101833.16;;;16.91;66.09
80678;BME280;70042;52.494;5.502;2024-03-22T05:58:40;101834.06;;;16.88;66.14
80678;BME280;70042;52.494;5.502;2024-03-22T06:01:05;101830.50;;;16.89;66.17
80678;BME280;70042;52.494;5.502;2024-03-22T06:03:31;101828.78;;;16.88;65.92
80678;BME280;70042;52.494;5.502;2024-03-22T06:05:57;101829.66;;;16.89;66.18
80678;BME280;70042;52.494;5.502;2024-03-22T06:08:26;101831.41;;;16.88;65.88
80678;BME280;70042;52.494;5.502;2024-03-22T06:10:55;101822.63;;;16.88;65.98
80678;BME280;70042;52.494;5.502;2024-03-22T06:13:23;101833.19;;;16.88;65.86
80678;BME280;70042;52.494;5.502;2024-03-22T06:15:49;101827.00;;;16.87;66.01
80678;BME280;70042;52.494;5.502;2024-03-22T06:18:15;101822.63;;;16.88;66.10
80678;BME280;70042;52.494;5.502;2024-03-22T06:20:41;101819.09;;;16.87;65.95
80678;BME280;70042;52.494;5.502;2024-03-22T06:23:07;101822.63;;;16.88;66.00
80678;BME280;70042;52.494;5.502;2024-03-22T06:25:33;101828.78;;;16.88;65.92
80678;BME280;70042;52.494;5.502;2024-03-22T06:27:58;101822.63;;;16.88;66.31
80678;BME280;70042;52.494;5.502;2024-03-22T06:30:24;101824.38;;;16.89;65.99
80678;BME280;70042;52.494;5.502;2024-03-22T06:32:49;101825.22;;;16.89;66.02
80678;BME280;70042;52.494;5.502;2024-03-22T06:35:14;101815.56;;;16.90;66.21
80678;BME280;70042;52.494;5.502;2024-03-22T06:37:40;101817.31;;;16.91;66.61
80678;BME280;70042;52.494;5.502;2024-03-22T06:40:09;101812.03;;;16.91;67.18
80678;BME280;70042;52.494;5.502;2024-03-22T06:42:35;101813.78;;;16.95;68.22
80678;BME280;70042;52.494;5.502;2024-03-22T06:45:02;101812.00;;;16.94;67.37
80678;BME280;70042;52.494;5.502;2024-03-22T06:47:27;101808.50;;;16.95;67.00
80678;BME280;70042;52.494;5.502;2024-03-22T06:49:53;101810.22;;;16.96;66.87
80678;BME280;70042;52.494;5.502;2024-03-22T06:52:18;101811.13;;;16.96;67.21
80678;BME280;70042;52.494;5.502;2024-03-22T06:54:45;101798.78;;;16.97;67.04
80678;BME280;70042;52.494;5.502;2024-03-22T06:57:10;101795.28;;;16.96;66.90
80678;BME280;70042;52.494;5.502;2024-03-22T06:59:36;101802.31;;;16.96;66.57
80678;BME280;70042;52.494;5.502;2024-03-22T07:02:01;101797.03;;;16.97;66.77
80678;BME280;70042;52.494;5.502;2024-03-22T07:04:27;101797.03;;;16.97;66.64
80678;BME280;70042;52.494;5.502;2024-03-22T07:06:53;101803.19;;;16.98;66.62
80678;BME280;70042;52.494;5.502;2024-03-22T07:09:18;101796.16;;;16.97;66.35
80678;BME280;70042;52.494;5.502;2024-03-22T07:11:44;101801.44;;;16.97;66.37
80678;BME280;70042;52.494;5.502;2024-03-22T07:14:09;101797.91;;;16.98;66.47
80678;BME280;70042;52.494;5.502;2024-03-22T07:16:35;101790.88;;;16.97;66.55
80678;BME280;70042;52.494;5.502;2024-03-22T07:19:02;101782.06;;;16.96;66.42
80678;BME280;70042;52.494;5.502;2024-03-22T07:21:29;101788.25;;;16.95;66.54
80678;BME280;70042;52.494;5.502;2024-03-22T07:23:54;101793.53;;;16.95;66.51
80678;BME280;70042;52.494;5.502;2024-03-22T07:26:20;101790.00;;;16.96;66.59
80678;BME280;70042;52.494;5.502;2024-03-22T07:28:45;101791.75;;;16.96;66.46
80678;BME280;70042;52.494;5.502;2024-03-22T07:31:11;101787.38;;;16.95;66.51
80678;BME280;70042;52.494;5.502;2024-03-22T07:33:36;101795.31;;;16.95;66.33
80678;BME280;70042;52.494;5.502;2024-03-22T07:36:05;101791.75;;;16.96;66.35
80678;BME280;70042;52.494;5.502;2024-03-22T07:38:30;101792.66;;;16.95;66.44
80678;BME280;70042;52.494;5.502;2024-03-22T07:40:56;101790.00;;;16.96;66.68
80678;BME280;70042;52.494;5.502;2024-03-22T07:43:22;101790.88;;;16.97;66.35
80678;BME280;70042;52.494;5.502;2024-03-22T07:45:47;101790.88;;;16.97;66.23
80678;BME280;70042;52.494;5.502;2024-03-22T07:48:13;101792.63;;;16.98;66.34
80678;BME280;70042;52.494;5.502;2024-03-22T07:50:38;101798.81;;;16.98;66.54
80678;BME280;70042;52.494;5.502;2024-03-22T07:53:04;101784.72;;;16.98;66.45
80678;BME280;70042;52.494;5.502;2024-03-22T07:55:29;101789.09;;;16.99;66.33
80678;BME280;70042;52.494;5.502;2024-03-22T07:57:54;101796.16;;;16.98;66.36
80678;BME280;70042;52.494;5.502;2024-03-22T08:00:20;101799.66;;;16.99;66.37
80678;BME280;70042;52.494;5.502;2024-03-22T08:02:45;101807.56;;;16.99;66.24
80678;BME280;70042;52.494;5.502;2024-03-22T08:05:10;101797.91;;;16.98;66.32
80678;BME280;70042;52.494;5.502;2024-03-22T08:07:36;101800.56;;;16.98;66.10
80678;BME280;70042;52.494;5.502;2024-03-22T08:10:02;101815.50;;;16.99;66.25
80678;BME280;70042;52.494;5.502;2024-03-22T08:12:29;101804.94;;;16.99;66.01
80678;BME280;70042;52.494;5.502;2024-03-22T08:14:55;101813.72;;;16.99;66.32
80678;BME280;70042;52.494;5.502;2024-03-22T08:17:20;101803.19;;;17.01;66.39
80678;BME280;70042;52.494;5.502;2024-03-22T08:19:46;101810.19;;;17.02;65.97
80678;BME280;70042;52.494;5.502;2024-03-22T08:22:11;101814.59;;;17.03;65.94
80678;BME280;70042;52.494;5.502;2024-03-22T08:24:37;101819.00;;;17.04;66.10
80678;BME280;70042;52.494;5.502;2024-03-22T08:27:03;101818.09;;;17.05;65.86
80678;BME280;70042;52.494;5.502;2024-03-22T08:29:28;101814.56;;;17.06;65.85
80678;BME280;70042;52.494;5.502;2024-03-22T08:31:54;101813.69;;;17.05;65.72
80678;BME280;70042;52.494;5.502;2024-03-22T08:34:21;101812.81;;;17.05;66.22
80678;BME280;70042;52.494;5.502;2024-03-22T08:36:47;101797.84;;;17.05;65.52
80678;BME280;70042;52.494;5.502;2024-03-22T08:39:12;101804.88;;;17.05;66.02
80678;BME280;70042;52.494;5.502;2024-03-22T08:41:37;101804.91;;;17.03;65.79
80678;BME280;70042;52.494;5.502;2024-03-22T08:44:03;101804.03;;;17.03;65.61
80678;BME280;70042;52.494;5.502;2024-03-22T08:46:28;101804.03;;;17.03;66.00
80678;BME280;70042;52.494;5.502;2024-03-22T08:48:54;101806.66;;;17.03;65.87
80678;BME280;70042;52.494;5.502;2024-03-22T08:51:21;101797.00;;;17.00;65.66
80678;BME280;70042;52.494;5.502;2024-03-22T08:53:46;101782.94;;;17.00;65.95
80678;BME280;70042;52.494;5.502;2024-03-22T08:56:11;101796.13;;;17.00;65.98
80678;BME280;70042;52.494;5.502;2024-03-22T08:58:37;101790.84;;;17.00;65.88
80678;BME280;70042;52.494;5.502;2024-03-22T09:01:02;101798.78;;;17.00;65.78
80678;BME280;70042;52.494;5.502;2024-03-22T09:03:28;101784.69;;;17.01;65.83
80678;BME280;70042;52.494;5.502;2024-03-22T09:05:55;101790.84;;;17.00;65.84
80678;BME280;70042;52.494;5.502;2024-03-22T09:08:21;101785.56;;;17.00;65.80
80678;BME280;70042;52.494;5.502;2024-03-22T09:10:49;101797.00;;;17.00;65.82
80678;BME280;70042;52.494;5.502;2024-03-22T09:13:14;101789.09;;;17.00;65.64
80678;BME280;70042;52.494;5.502;2024-03-22T09:15:40;101787.34;;;17.01;65.77
80678;BME280;70042;52.494;5.502;2024-03-22T09:18:05;101788.22;;;17.00;65.92
80678;BME280;70042;52.494;5.502;2024-03-22T09:20:31;101792.63;;;17.01;65.99
80678;BME280;70042;52.494;5.502;2024-03-22T09:22:57;101785.56;;;17.00;65.93
80678;BME280;70042;52.494;5.502;2024-03-22T09:25:25;101782.94;;;17.00;65.86
80678;BME280;70042;52.494;5.502;2024-03-22T09:27:51;101775.88;;;16.99;65.85
80678;BME280;70042;52.494;5.502;2024-03-22T09:30:16;101781.16;;;16.99;65.85
80678;BME280;70042;52.494;5.502;2024-03-22T09:32:42;101782.09;;;16.98;66.17
80678;BME280;70042;52.494;5.502;2024-03-22T09:35:08;101784.72;;;16.98;66.25
80678;BME280;70042;52.494;5.502;2024-03-22T09:37:34;101783.84;;;16.96;66.33
80678;BME280;70042;52.494;5.502;2024-03-22T09:39:59;101782.06;;;16.96;65.88
80678;BME280;70042;52.494;5.502;2024-03-22T09:42:25;101789.13;;;16.96;65.98
80678;BME280;70042;52.494;5.502;2024-03-22T09:44:51;101780.31;;;16.97;66.18
80678;BME280;70042;52.494;5.502;2024-03-22T09:47:18;101783.84;;;16.97;66.23
80678;BME280;70042;52.494;5.502;2024-03-22T09:49:47;101778.56;;;16.96;66.10
80678;BME280;70042;52.494;5.502;2024-03-22T09:52:15;101782.97;;;16.97;65.90
80678;BME280;70042;52.494;5.502;2024-03-22T09:54:44;101784.72;;;16.98;66.26
80678;BME280;70042;52.494;5.502;2024-03-22T09:57:17;101780.31;;;16.97;65.94
80678;BME280;70042;52.494;5.502;2024-03-22T09:59:44;101786.47;;;16.97;66.16
80678;BME280;70042;52.494;5.502;2024-03-22T10:02:11;101778.56;;;16.97;65.86
80678;BME280;70042;52.494;5.502;2024-03-22T10:04:37;101782.97;;;16.97;66.38
80678;BME280;70042;52.494;5.502;2024-03-22T10:07:03;101779.44;;;16.98;66.32
80678;BME280;70042;52.494;5.502;2024-03-22T10:09:29;101773.28;;;16.97;66.17
80678;BME280;70042;52.494;5.502;2024-03-22T10:11:58;101771.53;;;16.98;66.21
80678;BME280;70042;52.494;5.502;2024-03-22T10:14:23;101773.28;;;16.97;66.35
80678;BME280;70042;52.494;5.502;2024-03-22T10:16:55;101763.59;;;16.98;66.32
80678;BME280;70042;52.494;5.502;2024-03-22T10:19:21;101773.25;;;16.99;66.32
80678;BME280;70042;52.494;5.502;2024-03-22T10:22:06;101778.53;;;16.99;66.35
80678;BME280;70042;52.494;5.502;2024-03-22T10:24:32;101775.91;;;17.00;66.16
80678;BME280;70042;52.494;5.502;2024-03-22T10:27:00;101782.06;;;17.01;66.05
80678;BME280;70042;52.494;5.502;2024-03-22T10:29:26;101774.13;;;17.01;66.31
80678;BME280;70042;52.494;5.502;2024-03-22T10:31:53;101782.06;;;17.01;66.32
80678;BME280;70042;52.494;5.502;2024-03-22T10:34:21;101776.75;;;17.02;66.33
80678;BME280;70042;52.494;5.502;2024-03-22T10:36:47;101773.22;;;17.02;66.38
80678;BME280;70042;52.494;5.502;2024-03-22T10:39:16;101778.50;;;17.02;66.28
80678;BME280;70042;52.494;5.502;2024-03-22T10:41:43;101778.50;;;17.02;66.50
80678;BME280;70042;52.494;5.502;2024-03-22T10:44:08;101774.09;;;17.02;66.45
80678;BME280;70042;52.494;5.502;2024-03-22T10:46:34;101775.88;;;17.02;66.55
80678;BME280;70042;52.494;5.502;2024-03-22T10:49:00;101775.00;;;17.03;66.38
80678;BME280;70042;52.494;5.502;2024-03-22T10:51:30;101779.38;;;17.02;66.51
80678;BME280;70042;52.494;5.502;2024-03-22T10:53:56;101765.31;;;17.02;66.62
80678;BME280;70042;52.494;5.502;2024-03-22T10:56:23;101770.59;;;17.02;66.51
80678;BME280;70042;52.494;5.502;2024-03-22T10:58:49;101762.66;;;17.02;66.35
80678;BME280;70042;52.494;5.502;2024-03-22T11:01:27;101765.31;;;17.02;66.27
80678;BME280;70042;52.494;5.502;2024-03-22T11:04:08;101767.09;;;17.01;66.25
80678;BME280;70042;52.494;5.502;2024-03-22T11:06:36;101765.31;;;17.02;66.06
80678;BME280;70042;52.494;5.502;2024-03-22T11:09:02;101757.38;;;17.02;66.39
80678;BME280;70042;52.494;5.502;2024-03-22T11:11:31;101762.66;;;17.02;66.36
80678;BME280;70042;52.494;5.502;2024-03-22T11:14:02;101757.38;;;17.02;66.32
80678;BME280;70042;52.494;5.502;2024-03-22T11:16:28;101752.09;;;17.02;66.52
80678;BME280;70042;52.494;5.502;2024-03-22T11:18:54;101758.28;;;17.02;66.28
80678;BME280;70042;52.494;5.502;2024-03-22T11:21:19;101752.09;;;17.02;66.51
80678;BME280;70042;52.494;5.502;2024-03-22T11:23:46;101746.81;;;17.02;66.19
80678;BME280;70042;52.494;5.502;2024-03-22T11:26:11;101747.72;;;17.02;66.68
80678;BME280;70042;52.494;5.502;2024-03-22T11:28:38;101745.09;;;17.01;66.43
80678;BME280;70042;52.494;5.502;2024-03-22T11:31:03;101748.63;;;17.01;66.59
80678;BME280;70042;52.494;5.502;2024-03-22T11:33:30;101746.81;;;17.02;66.33
80678;BME280;70042;52.494;5.502;2024-03-22T11:35:58;101752.09;;;17.02;66.21
80678;BME280;70042;52.494;5.502;2024-03-22T11:38:24;101741.53;;;17.02;66.30
80678;BME280;70042;52.494;5.502;2024-03-22T11:40:52;101744.19;;;17.02;66.53
80678;BME280;70042;52.494;5.502;2024-03-22T11:43:18;101744.19;;;17.02;66.29
80678;BME280;70042;52.494;5.502;2024-03-22T11:45:44;101738.06;;;17.01;66.23
80678;BME280;70042;52.494;5.502;2024-03-22T11:48:09;101741.53;;;17.02;66.21
80678;BME280;70042;52.494;5.502;2024-03-22T11:50:37;101734.50;;;17.02;65.67
80678;BME280;70042;52.494;5.502;2024-03-22T11:53:05;101733.63;;;17.02;66.13
80678;BME280;70042;52.494;5.502;2024-03-22T11:55:30;101731.88;;;17.02;65.99
80678;BME280;70042;52.494;5.502;2024-03-22T11:57:57;101730.09;;;17.03;66.09
80678;BME280;70042;52.494;5.502;2024-03-22T12:00:23;101732.75;;;17.03;66.32
80678;BME280;70042;52.494;5.502;2024-03-22T12:02:50;101730.13;;;17.01;66.11
80678;BME280;70042;52.494;5.502;2024-03-22T12:05:17;101722.22;;;17.01;66.37
80678;BME280;70042;52.494;5.502;2024-03-22T12:07:44;101720.44;;;17.00;66.29
80678;BME280;70042;52.494;5.502;2024-03-22T12:10:09;101723.97;;;17.01;66.38
80678;BME280;70042;52.494;5.502;2024-03-22T12:12:35;101727.50;;;17.00;66.34
80678;BME280;70042;52.494;5.502;2024-03-22T12:15:02;101721.34;;;16.99;66.22
80678;BME280;70042;52.494;5.502;2024-03-22T12:17:27;101720.44;;;16.99;66.27
80678;BME280;70042;52.494;5.502;2024-03-22T12:19:53;101721.34;;;16.99;66.35
80678;BME280;70042;52.494;5.502;2024-03-22T12:22:18;101720.44;;;16.99;66.23
80678;BME280;70042;52.494;5.502;2024-03-22T12:24:43;101711.66;;;17.00;66.22
80678;BME280;70042;52.494;5.502;2024-03-22T12:27:09;101709.00;;;17.00;66.14
80678;BME280;70042;52.494;5.502;2024-03-22T12:29:35;101715.19;;;17.00;66.03
80678;BME280;70042;52.494;5.502;2024-03-22T12:32:01;101723.97;;;17.01;66.10
80678;BME280;70042;52.494;5.502;2024-03-22T12:34:29;101719.56;;;17.01;66.08
80678;BME280;70042;52.494;5.502;2024-03-22T12:36:55;101712.50;;;17.02;66.44
80678;BME280;70042;52.494;5.502;2024-03-22T12:39:20;101715.16;;;17.02;66.11
80678;BME280;70042;52.494;5.502;2024-03-22T12:41:45;101704.59;;;17.02;66.43
80678;BME280;70042;52.494;5.502;2024-03-22T12:44:11;101709.88;;;17.03;66.10